sensor_id;sensor_type;location;lat;lon;timestamp;pressure;altitude;pressure_sealevel;temperature;humidity
62111;BME280;48102;47.526;19.072;2023-09-19T03:40:47;99837.69;;;20.78;100.00
62111;BME280;48102;47.526;19.072;2023-09-19T03:43:52;99837.69;;;20.78;100.00
62111;BME280;48102;47.526;19.072;2023-09-19T03:46:57;99844.06;;;20.32;100.00
62111;BME280;48102;47.526;19.072;2023-09-19T03:50:02;99837.56;;;20.34;100.00
62111;BME280;48102;47.526;19.072;2023-09-19T03:53:05;99847.50;;;20.42;100.00
62111;BME280;48102;47.526;19.072;2023-09-19T03:56:10;99844.38;;;20.46;100.00
62111;BME280;48102;47.526;19.072;2023-09-19T03:59:13;99851.44;;;20.47;100.00
62111;BME280;48102;47.526;19.072;2023-09-19T04:02:16;99840.84;;;20.56;100.00
62111;BME280;48102;47.526;19.072;2023-09-19T04:05:25;99849.78;;;20.64;100.00
62111;BME280;48102;47.526;19.072;2023-09-19T04:08:28;99862.91;;;20.75;100.00
62111;BME280;48102;47.526;19.072;2023-09-19T04:11:33;99862.84;;;20.85;100.00
62111;BME280;48102;47.526;19.072;2023-09-19T04:14:36;99866.00;;;20.98;100.00
62111;BME280;48102;47.526;19.072;2023-09-19T04:17:38;99861.53;;;21.07;100.00
62111;BME280;48102;47.526;19.072;2023-09-19T04:20:48;99864.72;;;21.11;100.00
62111;BME280;48102;47.526;19.072;2023-09-19T04:23:51;99876.56;;;21.26;100.00
62111;BME280;48102;47.526;19.072;2023-09-19T04:26:54;99878.50;;;21.34;100.00
62111;BME280;48102;47.526;19.072;2023-09-19T04:29:57;99860.41;;;21.36;100.00
62111;BME280;48102;47.526;19.072;2023-09-19T04:33:02;99871.97;;;21.36;100.00
62111;BME280;48102;47.526;19.072;2023-09-19T04:36:09;99873.41;;;21.30;100.00
62111;BME280;48102;47.526;19.072;2023-09-19T04:39:32;99874.44;;;21.29;100.00
62111;BME280;48102;47.526;19.072;2023-09-19T04:42:37;99881.88;;;21.18;100.00
62111;BME280;48102;47.526;19.072;2023-09-19T04:45:40;99890.75;;;21.18;100.00
62111;BME280;48102;47.526;19.072;2023-09-19T04:48:43;99896.84;;;21.28;100.00
62111;BME280;48102;47.526;19.072;2023-09-19T04:51:46;99898.00;;;21.26;100.00
62111;BME280;48102;47.526;19.072;2023-09-19T04:54:49;99905.44;;;21.32;100.00
62111;BME280;48102;47.526;19.072;2023-09-19T04:57:52;99902.91;;;21.30;100.00
62111;BME280;48102;47.526;19.072;2023-09-19T05:00:56;99906.06;;;21.26;100.00
62111;BME280;48102;47.526;19.072;2023-09-19T05:03:59;99909.34;;;21.20;100.00
62111;BME280;48102;47.526;19.072;2023-09-19T05:07:01;99903.38;;;21.26;100.00
62111;BME280;48102;47.526;19.072;2023-09-19T05:10:06;99903.84;;;21.21;100.00
62111;BME280;48102;47.526;19.072;2023-09-19T05:13:09;99915.03;;;21.17;100.00
62111;BME280;48102;47.526;19.072;2023-09-19T05:16:13;99913.94;;;21.10;100.00
62111;BME280;48102;47.526;19.072;2023-09-19T05:19:16;99932.63;;;21.01;100.00
62111;BME280;48102;47.526;19.072;2023-09-19T05:22:19;99933.47;;;20.84;100.00
62111;BME280;48102;47.526;19.072;2023-09-19T05:25:22;99937.22;;;20.73;100.00
62111;BME280;48102;47.526;19.072;2023-09-19T05:28:26;99936.88;;;20.59;100.00
62111;BME280;48102;47.526;19.072;2023-09-19T05:31:29;99945.22;;;20.56;100.00
62111;BME280;48102;47.526;19.072;2023-09-19T05:34:33;99950.88;;;20.52;100.00
62111;BME280;48102;47.526;19.072;2023-09-19T05:37:36;99955.81;;;20.47;100.00
62111;BME280;48102;47.526;19.072;2023-09-19T05:40:40;99952.75;;;20.42;100.00
62111;BME280;48102;47.526;19.072;2023-09-19T05:43:45;99959.53;;;20.37;100.00
62111;BME280;48102;47.526;19.072;2023-09-19T05:46:48;99970.00;;;20.30;100.00
62111;BME280;48102;47.526;19.072;2023-09-19T05:49:52;99948.91;;;20.17;100.00
62111;BME280;48102;47.526;19.072;2023-09-19T05:52:56;99951.38;;;20.28;100.00
62111;BME280;48102;47.526;19.072;2023-09-19T05:55:59;99950.84;;;20.25;100.00
62111;BME280;48102;47.526;19.072;2023-09-19T05:59:03;99957.06;;;20.25;100.00
62111;BME280;48102;47.526;19.072;2023-09-19T06:02:08;99963.25;;;20.26;100.00
62111;BME280;48102;47.526;19.072;2023-09-19T06:05:12;99981.38;;;20.32;100.00
62111;BME280;48102;47.526;19.072;2023-09-19T06:08:15;99969.03;;;20.21;100.00
62111;BME280;48102;47.526;19.072;2023-09-19T06:11:18;99977.09;;;20.12;100.00
62111;BME280;48102;47.526;19.072;2023-09-19T06:14:23;99979.81;;;20.02;100.00
62111;BME280;48102;47.526;19.072;2023-09-19T06:17:27;99982.38;;;19.84;100.00
62111;BME280;48102;47.526;19.072;2023-09-19T06:20:31;99992.25;;;19.84;100.00
62111;BME280;48102;47.526;19.072;2023-09-19T06:23:36;99987.78;;;19.45;100.00
62111;BME280;48102;47.526;19.072;2023-09-19T06:26:39;100001.28;;;19.15;100.00
62111;BME280;48102;47.526;19.072;2023-09-19T06:29:42;99991.84;;;19.01;100.00
62111;BME280;48102;47.526;19.072;2023-09-19T06:32:45;99999.41;;;18.86;100.00
62111;BME280;48102;47.526;19.072;2023-09-19T06:35:48;99999.28;;;18.88;100.00
62111;BME280;48102;47.526;19.072;2023-09-19T06:38:51;100002.38;;;18.83;100.00
62111;BME280;48102;47.526;19.072;2023-09-19T06:41:55;100013.87;;;18.84;100.00
62111;BME280;48102;47.526;19.072;2023-09-19T06:44:57;100011.22;;;18.84;100.00
62111;BME280;48102;47.526;19.072;2023-09-19T06:48:00;100012.75;;;18.86;100.00
62111;BME280;48102;47.526;19.072;2023-09-19T06:51:06;100018.81;;;18.88;100.00
62111;BME280;48102;47.526;19.072;2023-09-19T06:54:10;100019.50;;;18.90;100.00
62111;BME280;48102;47.526;19.072;2023-09-19T06:57:14;100034.50;;;18.72;100.00
62111;BME280;48102;47.526;19.072;2023-09-19T07:00:18;100039.16;;;18.70;100.00
62111;BME280;48102;47.526;19.072;2023-09-19T07:03:21;100037.19;;;18.82;100.00
62111;BME280;48102;47.526;19.072;2023-09-19T07:06:28;100023.87;;;18.91;100.00
62111;BME280;48102;47.526;19.072;2023-09-19T07:09:31;100030.06;;;18.92;100.00
62111;BME280;48102;47.526;19.072;2023-09-19T07:12:34;100042.12;;;18.86;100.00
62111;BME280;48102;47.526;19.072;2023-09-19T07:15:38;100045.53;;;18.98;100.00
62111;BME280;48102;47.526;19.072;2023-09-19T07:18:49;100051.97;;;18.95;100.00
62111;BME280;48102;47.526;19.072;2023-09-19T07:21:52;100061.97;;;18.93;100.00
62111;BME280;48102;47.526;19.072;2023-09-19T07:24:55;100067.16;;;18.95;100.00
62111;BME280;48102;47.526;19.072;2023-09-19T07:27:58;100064.97;;;19.10;100.00
62111;BME280;48102;47.526;19.072;2023-09-19T07:31:03;100069.19;;;19.22;100.00
62111;BME280;48102;47.526;19.072;2023-09-19T07:34:07;100072.72;;;19.32;100.00
62111;BME280;48102;47.526;19.072;2023-09-19T07:37:12;100078.06;;;19.42;100.00
62111;BME280;48102;47.526;19.072;2023-09-19T07:40:17;100076.38;;;19.31;100.00
62111;BME280;48102;47.526;19.072;2023-09-19T07:43:20;100081.56;;;19.23;100.00
62111;BME280;48102;47.526;19.072;2023-09-19T07:46:23;100080.66;;;19.03;100.00
62111;BME280;48102;47.526;19.072;2023-09-19T07:49:29;100081.94;;;18.68;100.00
62111;BME280;48102;47.526;19.072;2023-09-19T07:52:32;100085.06;;;18.22;100.00
62111;BME280;48102;47.526;19.072;2023-09-19T07:55:36;100083.53;;;17.98;100.00
62111;BME280;48102;47.526;19.072;2023-09-19T07:58:40;100087.00;;;17.89;100.00
62111;BME280;48102;47.526;19.072;2023-09-19T08:01:46;100083.78;;;17.95;100.00
62111;BME280;48102;47.526;19.072;2023-09-19T08:04:51;100095.19;;;17.97;100.00
62111;BME280;48102;47.526;19.072;2023-09-19T08:07:55;100100.72;;;17.85;100.00
62111;BME280;48102;47.526;19.072;2023-09-19T08:10:59;100113.69;;;17.78;100.00
62111;BME280;48102;47.526;19.072;2023-09-19T08:14:02;100115.47;;;17.89;100.00
62111;BME280;48102;47.526;19.072;2023-09-19T08:17:05;100116.84;;;17.72;100.00
62111;BME280;48102;47.526;19.072;2023-09-19T08:20:10;100132.97;;;17.70;100.00
62111;BME280;48102;47.526;19.072;2023-09-19T08:23:20;100136.22;;;17.74;100.00
62111;BME280;48102;47.526;19.072;2023-09-19T08:26:23;100143.34;;;17.85;100.00
62111;BME280;48102;47.526;19.072;2023-09-19T08:29:27;100152.47;;;17.71;100.00
62111;BME280;48102;47.526;19.072;2023-09-19T08:32:30;100154.53;;;17.67;100.00
62111;BME280;48102;47.526;19.072;2023-09-19T08:35:33;100147.47;;;17.89;100.00
62111;BME280;48102;47.526;19.072;2023-09-19T08:38:36;100151.94;;;17.88;100.00
62111;BME280;48102;47.526;19.072;2023-09-19T08:41:39;100154.06;;;18.05;100.00
62111;BME280;48102;47.526;19.072;2023-09-19T08:44:43;100153.91;;;18.07;100.00
62111;BME280;48102;47.526;19.072;2023-09-19T08:47:56;100173.81;;;18.24;100.00
62111;BME280;48102;47.526;19.072;2023-09-19T08:51:06;100172.59;;;18.28;100.00
62111;BME280;48102;47.526;19.072;2023-09-19T08:57:21;100192.81;;;18.10;100.00
62111;BME280;48102;47.526;19.072;2023-09-19T09:00:26;100208.31;;;18.04;100.00
62111;BME280;48102;47.526;19.072;2023-09-19T09:03:32;100213.63;;;18.16;100.00
62111;BME280;48102;47.526;19.072;2023-09-19T09:06:37;100217.31;;;18.03;100.00
62111;BME280;48102;47.526;19.072;2023-09-19T09:09:42;100211.28;;;18.01;100.00
62111;BME280;48102;47.526;19.072;2023-09-19T09:12:46;100212.19;;;18.12;100.00
62111;BME280;48102;47.526;19.072;2023-09-19T09:15:49;100199.78;;;18.43;100.00
62111;BME280;48102;47.526;19.072;2023-09-19T09:18:52;100180.25;;;18.84;100.00
62111;BME280;48102;47.526;19.072;2023-09-19T09:22:10;100156.59;;;19.00;100.00
62111;BME280;48102;47.526;19.072;2023-09-19T09:25:14;100166.22;;;19.22;100.00
62111;BME280;48102;47.526;19.072;2023-09-19T09:28:21;100174.91;;;19.24;100.00
62111;BME280;48102;47.526;19.072;2023-09-19T09:31:24;100172.87;;;19.47;100.00
62111;BME280;48102;47.526;19.072;2023-09-19T09:34:34;100167.38;;;19.39;100.00
62111;BME280;48102;47.526;19.072;2023-09-19T09:37:37;100158.38;;;19.40;100.00
62111;BME280;48102;47.526;19.072;2023-09-19T09:40:49;100148.69;;;19.49;100.00
62111;BME280;48102;47.526;19.072;2023-09-19T09:44:14;100136.53;;;19.25;100.00
62111;BME280;48102;47.526;19.072;2023-09-19T09:50:52;100141.91;;;18.95;100.00
62111;BME280;48102;47.526;19.072;2023-09-19T09:54:16;100149.22;;;18.93;100.00
62111;BME280;48102;47.526;19.072;2023-09-19T09:57:20;100168.78;;;18.93;100.00
62111;BME280;48102;47.526;19.072;2023-09-19T10:00:25;100183.37;;;18.89;100.00
62111;BME280;48102;47.526;19.072;2023-09-19T10:03:37;100191.12;;;18.92;100.00
62111;BME280;48102;47.526;19.072;2023-09-19T10:06:46;100185.31;;;19.18;100.00
62111;BME280;48102;47.526;19.072;2023-09-19T10:09:54;100178.28;;;19.76;100.00
62111;BME280;48102;47.526;19.072;2023-09-19T10:13:08;100177.03;;;19.61;100.00
62111;BME280;48102;47.526;19.072;2023-09-19T10:16:15;100180.69;;;19.89;100.00
62111;BME280;48102;47.526;19.072;2023-09-19T10:19:33;100176.69;;;20.71;100.00
62111;BME280;48102;47.526;19.072;2023-09-19T10:22:39;100178.88;;;21.22;100.00
62111;BME280;48102;47.526;19.072;2023-09-19T10:25:44;100185.16;;;21.31;100.00
62111;BME280;48102;47.526;19.072;2023-09-19T10:28:50;100192.44;;;21.48;100.00
62111;BME280;48102;47.526;19.072;2023-09-19T10:31:56;100186.44;;;21.82;100.00
62111;BME280;48102;47.526;19.072;2023-09-19T10:35:02;100193.37;;;21.57;100.00
62111;BME280;48102;47.526;19.072;2023-09-19T10:38:09;100203.91;;;21.41;100.00
62111;BME280;48102;47.526;19.072;2023-09-19T10:41:14;100198.25;;;21.89;100.00
62111;BME280;48102;47.526;19.072;2023-09-19T10:44:23;100202.91;;;22.05;100.00
62111;BME280;48102;47.526;19.072;2023-09-19T10:47:26;100208.97;;;22.43;100.00
62111;BME280;48102;47.526;19.072;2023-09-19T10:51:33;100201.56;;;22.63;100.00
62111;BME280;48102;47.526;19.072;2023-09-19T10:54:21;100200.69;;;22.54;100.00
62111;BME280;48102;47.526;19.072;2023-09-19T10:57:25;100206.75;;;22.38;100.00
62111;BME280;48102;47.526;19.072;2023-09-19T11:00:30;100214.50;;;22.41;100.00
62111;BME280;48102;47.526;19.072;2023-09-19T11:07:25;100215.31;;;22.86;100.00
62111;BME280;48102;47.526;19.072;2023-09-19T11:10:48;100222.12;;;22.98;100.00
62111;BME280;48102;47.526;19.072;2023-09-19T11:20:24;100237.37;;;23.58;100.00
62111;BME280;48102;47.526;19.072;2023-09-19T11:23:28;100235.84;;;24.14;100.00
62111;BME280;48102;47.526;19.072;2023-09-19T11:26:41;100236.47;;;25.06;100.00
62111;BME280;48102;47.526;19.072;2023-09-19T11:30:25;100229.84;;;25.64;85.71
62111;BME280;48102;47.526;19.072;2023-09-19T11:33:30;100219.97;;;25.00;88.71
62111;BME280;48102;47.526;19.072;2023-09-19T11:36:36;100230.63;;;24.77;89.95
62111;BME280;48102;47.526;19.072;2023-09-19T11:39:40;100217.28;;;24.92;93.98
62111;BME280;48102;47.526;19.072;2023-09-19T11:42:45;100216.53;;;25.31;87.88
62111;BME280;48102;47.526;19.072;2023-09-19T11:49:06;100207.59;;;26.16;78.52
62111;BME280;48102;47.526;19.072;2023-09-19T11:52:21;100200.81;;;26.43;73.05
62111;BME280;48102;47.526;19.072;2023-09-19T11:55:28;100205.25;;;26.36;73.37
62111;BME280;48102;47.526;19.072;2023-09-19T11:58:37;100200.44;;;26.08;70.57
62111;BME280;48102;47.526;19.072;2023-09-19T12:01:50;100182.25;;;25.40;71.78
62111;BME280;48102;47.526;19.072;2023-09-19T12:04:57;100186.88;;;25.23;73.53
62111;BME280;48102;47.526;19.072;2023-09-19T12:08:03;100186.53;;;25.26;72.31
62111;BME280;48102;47.526;19.072;2023-09-19T12:11:14;100193.22;;;25.69;73.81
62111;BME280;48102;47.526;19.072;2023-09-19T12:14:22;100192.38;;;26.38;70.56
62111;BME280;48102;47.526;19.072;2023-09-19T12:17:46;100191.78;;;26.50;64.74
62111;BME280;48102;47.526;19.072;2023-09-19T12:20:50;100200.22;;;26.85;61.93
62111;BME280;48102;47.526;19.072;2023-09-19T12:24:06;100200.09;;;26.64;62.70
62111;BME280;48102;47.526;19.072;2023-09-19T12:27:14;100205.16;;;26.67;62.37
62111;BME280;48102;47.526;19.072;2023-09-19T12:30:17;100208.62;;;26.75;64.72
62111;BME280;48102;47.526;19.072;2023-09-19T12:33:29;100202.97;;;27.81;63.57
62111;BME280;48102;47.526;19.072;2023-09-19T12:36:33;100204.53;;;29.10;55.44
62111;BME280;48102;47.526;19.072;2023-09-19T12:39:41;100213.91;;;30.17;50.74
62111;BME280;48102;47.526;19.072;2023-09-19T12:42:45;100227.94;;;30.47;52.78
62111;BME280;48102;47.526;19.072;2023-09-19T12:45:49;100224.81;;;30.77;48.96
62111;BME280;48102;47.526;19.072;2023-09-19T12:49:15;100228.78;;;30.41;48.95
62111;BME280;48102;47.526;19.072;2023-09-19T12:52:19;100222.00;;;31.75;47.03
62111;BME280;48102;47.526;19.072;2023-09-19T12:55:30;100228.53;;;34.39;39.97
62111;BME280;48102;47.526;19.072;2023-09-19T12:58:55;100224.16;;;34.97;38.63
62111;BME280;48102;47.526;19.072;2023-09-19T13:02:05;100229.72;;;37.67;33.97
62111;BME280;48102;47.526;19.072;2023-09-19T13:05:16;100228.09;;;38.90;32.62
62111;BME280;48102;47.526;19.072;2023-09-19T13:08:40;100226.63;;;40.08;30.55
62111;BME280;48102;47.526;19.072;2023-09-19T13:11:44;100229.06;;;42.55;27.43
62111;BME280;48102;47.526;19.072;2023-09-19T13:15:10;100220.22;;;43.30;26.10
62111;BME280;48102;47.526;19.072;2023-09-19T13:18:17;100223.91;;;44.71;23.42
62111;BME280;48102;47.526;19.072;2023-09-19T13:21:31;100220.22;;;45.95;23.79
62111;BME280;48102;47.526;19.072;2023-09-19T13:24:39;100208.88;;;46.36;23.22
62111;BME280;48102;47.526;19.072;2023-09-19T13:27:44;100207.19;;;46.89;21.79
62111;BME280;48102;47.526;19.072;2023-09-19T13:30:47;100209.84;;;46.94;21.66
62111;BME280;48102;47.526;19.072;2023-09-19T13:33:51;100206.09;;;47.47;20.49
62111;BME280;48102;47.526;19.072;2023-09-19T13:36:54;100213.97;;;47.97;21.00
62111;BME280;48102;47.526;19.072;2023-09-19T13:39:57;100216.25;;;48.38;20.53
62111;BME280;48102;47.526;19.072;2023-09-19T13:43:02;100216.47;;;47.72;20.60
62111;BME280;48102;47.526;19.072;2023-09-19T13:46:05;100213.37;;;47.17;20.91
62111;BME280;48102;47.526;19.072;2023-09-19T13:49:14;100222.66;;;47.35;20.33
62111;BME280;48102;47.526;19.072;2023-09-19T13:52:19;100225.03;;;47.67;20.90
62111;BME280;48102;47.526;19.072;2023-09-19T13:55:23;100233.56;;;47.14;20.68
62111;BME280;48102;47.526;19.072;2023-09-19T13:58:28;100235.31;;;46.16;21.65
62111;BME280;48102;47.526;19.072;2023-09-19T14:01:32;100226.78;;;46.97;20.11
62111;BME280;48102;47.526;19.072;2023-09-19T14:04:37;100230.72;;;47.62;20.62
62111;BME280;48102;47.526;19.072;2023-09-19T14:07:41;100222.06;;;48.07;20.08
62111;BME280;48102;47.526;19.072;2023-09-19T14:10:44;100235.66;;;48.52;19.72
62111;BME280;48102;47.526;19.072;2023-09-19T14:13:47;100242.44;;;47.73;20.05
62111;BME280;48102;47.526;19.072;2023-09-19T14:16:52;100236.47;;;47.57;20.55
62111;BME280;48102;47.526;19.072;2023-09-19T14:19:55;100224.84;;;47.90;20.79
62111;BME280;48102;47.526;19.072;2023-09-19T14:22:58;100229.25;;;47.47;20.65
62111;BME280;48102;47.526;19.072;2023-09-19T14:26:03;100222.59;;;45.24;21.88
62111;BME280;48102;47.526;19.072;2023-09-19T14:29:06;100225.22;;;40.92;26.57
62111;BME280;48102;47.526;19.072;2023-09-19T14:32:10;100216.34;;;37.32;32.04
62111;BME280;48102;47.526;19.072;2023-09-19T14:35:13;100215.12;;;35.19;35.72
62111;BME280;48102;47.526;19.072;2023-09-19T14:38:17;100207.22;;;33.39;39.03
62111;BME280;48102;47.526;19.072;2023-09-19T14:41:20;100206.91;;;32.17;42.27
62111;BME280;48102;47.526;19.072;2023-09-19T14:44:24;100206.31;;;31.12;44.01
62111;BME280;48102;47.526;19.072;2023-09-19T14:47:27;100203.44;;;30.60;45.47
62111;BME280;48102;47.526;19.072;2023-09-19T14:50:30;100196.72;;;30.10;47.08
62111;BME280;48102;47.526;19.072;2023-09-19T14:53:35;100200.31;;;30.43;46.63
62111;BME280;48102;47.526;19.072;2023-09-19T14:56:40;100196.97;;;30.28;46.74
62111;BME280;48102;47.526;19.072;2023-09-19T14:59:46;100212.31;;;29.68;46.76
62111;BME280;48102;47.526;19.072;2023-09-19T15:02:50;100208.50;;;30.37;44.12
62111;BME280;48102;47.526;19.072;2023-09-19T15:06:04;100215.72;;;32.69;40.05
62111;BME280;48102;47.526;19.072;2023-09-19T15:09:07;100217.94;;;36.05;35.01
62111;BME280;48102;47.526;19.072;2023-09-19T15:12:12;100218.44;;;37.03;32.74
62111;BME280;48102;47.526;19.072;2023-09-19T15:15:16;100216.84;;;37.29;31.34
62111;BME280;48102;47.526;19.072;2023-09-19T15:18:19;100218.78;;;34.43;35.07
62111;BME280;48102;47.526;19.072;2023-09-19T15:21:22;100216.63;;;32.31;38.79
62111;BME280;48102;47.526;19.072;2023-09-19T15:24:26;100218.94;;;30.40;42.26
62111;BME280;48102;47.526;19.072;2023-09-19T15:27:29;100213.06;;;28.51;46.57
